createdAt,value
2023-04-20T00:01:17.149Z,25.45
2023-04-20T00:02:43.289Z,25.09
2023-04-20T00:04:30.620Z,24.76
2023-04-20T00:06:15.534Z,26.22
2023-04-20T00:08:00.340Z,25.57
2023-04-20T00:09:39.205Z,24.87
2023-04-20T00:11:05.939Z,24.48
2023-04-20T00:12:51.238Z,25.48
2023-04-20T00:14:25.150Z,25.92
2023-04-20T00:16:19.375Z,26.30
2023-04-20T00:17:52.382Z,26.79
2023-04-20T00:19:14.632Z,26.87
2023-04-20T00:20:59.545Z,26.38
2023-04-20T00:22:33.363Z,26.31
2023-04-20T00:24:07.114Z,27.27
2023-04-20T00:25:38.197Z,27.21
2023-04-20T00:27:12.207Z,27.07
2023-04-20T00:28:53.765Z,26.94
2023-04-20T00:30:18.060Z,27.95
2023-04-20T00:31:46.178Z,27.29
2023-04-20T00:33:33.702Z,25.96
2023-04-20T00:35:18.755Z,26.46
2023-04-20T00:36:40.100Z,25.83
2023-04-20T00:38:13.876Z,26.30
2023-04-20T00:39:37.733Z,25.99
2023-04-20T00:41:04.359Z,26.94
2023-04-20T00:42:41.104Z,27.24
2023-04-20T00:44:25.111Z,28.68
2023-04-20T00:46:05.721Z,26.91
2023-04-20T00:47:47.603Z,26.62
2023-04-20T00:49:33.723Z,26.44
2023-04-20T00:51:10.026Z,27.37
2023-04-20T00:52:48.827Z,26.85
2023-04-20T00:54:22.178Z,27.04
2023-04-20T00:55:55.259Z,28.51
2023-04-20T00:57:40.906Z,28.40
2023-04-20T00:59:14.851Z,27.44
2023-04-20T01:00:59.980Z,27.01
2023-04-20T01:02:36.318Z,27.76
2023-04-20T01:04:25.787Z,27.91
2023-04-20T01:06:15.316Z,27.87
2023-04-20T01:07:59.970Z,28.45
2023-04-20T01:09:47.724Z,29.22
2023-04-20T01:11:38.407Z,28.94
2023-04-20T01:13:09.704Z,27.15
2023-04-20T01:14:45.467Z,28.25
2023-04-20T01:16:19.637Z,27.63
2023-04-20T01:18:05.901Z,28.73
2023-04-20T01:19:53.515Z,26.94
2023-04-20T01:21:29.346Z,28.46
2023-04-20T01:23:03.153Z,29.17
2023-04-20T01:24:56.408Z,29.32
2023-04-20T01:26:32.567Z,28.61
2023-04-20T01:28:17.850Z,27.68
2023-04-20T01:29:53.927Z,26.96
2023-04-20T01:31:16.248Z,28.20
2023-04-20T01:33:01.342Z,27.81
2023-04-20T01:34:34.955Z,28.22
2023-04-20T01:36:19.978Z,27.69
2023-04-20T01:37:55.150Z,28.09
2023-04-20T01:39:40.155Z,26.58
2023-04-20T01:41:37.387Z,26.53
2023-04-20T01:43:22.696Z,26.98
2023-04-20T01:44:55.899Z,26.93
2023-04-20T01:46:29.254Z,27.72
2023-04-20T01:48:04.893Z,27.77
2023-04-20T01:49:59.507Z,26.89
2023-04-20T01:51:37.579Z,28.03
2023-04-20T01:53:27.772Z,26.92
2023-04-20T01:55:14.497Z,26.97
2023-04-20T01:56:48.235Z,25.44
2023-04-20T01:58:34.113Z,27.06
2023-04-20T02:00:08.950Z,26.79
2023-04-20T02:01:38.591Z,25.26
2023-04-20T02:03:13.189Z,24.96
2023-04-20T02:04:58.333Z,25.10
2023-04-20T02:06:25.170Z,24.90
2023-04-20T02:08:06.144Z,24.27
2023-04-20T02:09:50.090Z,24.75
2023-04-20T02:11:35.313Z,24.94
2023-04-20T02:13:08.733Z,24.81
2023-04-20T02:14:41.928Z,24.98
2023-04-20T02:16:17.802Z,25.31
2023-04-20T02:17:52.806Z,25.73
2023-04-20T02:19:29.118Z,25.61
2023-04-20T02:21:13.997Z,25.67
2023-04-20T02:22:58.695Z,26.25
2023-04-20T02:24:43.864Z,25.65
2023-04-20T02:26:21.714Z,26.26
2023-04-20T02:27:54.862Z,27.45
2023-04-20T02:29:48.538Z,26.58
2023-04-20T02:31:40.817Z,26.31
2023-04-20T02:33:24.743Z,26.61
2023-04-20T02:35:05.144Z,24.95
2023-04-20T02:36:56.308Z,25.90
2023-04-20T02:38:41.391Z,25.48
2023-04-20T02:40:26.866Z,25.72
2023-04-20T02:42:03.983Z,25.74
2023-04-20T02:43:48.804Z,25.77
2023-04-20T02:45:33.753Z,25.21
2023-04-20T02:47:19.568Z,23.37
2023-04-20T02:49:13.017Z,22.38
2023-04-20T02:50:48.705Z,22.22
2023-04-20T02:52:25.670Z,23.28
2023-04-20T02:54:01.969Z,23.19
2023-04-20T02:55:41.969Z,25.04
2023-04-20T02:57:15.752Z,22.37
2023-04-20T02:59:00.861Z,23.52
2023-04-20T03:01:22.251Z,23.90
2023-04-20T03:02:58.131Z,25.24
2023-04-20T03:04:44.422Z,25.60
2023-04-20T03:06:39.680Z,25.52
2023-04-20T03:08:15.437Z,26.48
2023-04-20T03:10:00.920Z,27.13
2023-04-20T03:11:53.167Z,25.29
2023-04-20T03:13:28.966Z,25.33
2023-04-20T03:15:11.153Z,25.51
2023-04-20T03:17:11.495Z,26.06
2023-04-20T03:18:47.317Z,25.17
2023-04-20T03:20:34.801Z,27.59
2023-04-20T03:22:20.049Z,27.44
2023-04-20T03:24:01.758Z,25.36
2023-04-20T03:25:31.163Z,25.21
2023-04-20T03:27:06.945Z,24.24
2023-04-20T03:29:00.209Z,23.83
2023-04-20T03:30:36.584Z,24.57
2023-04-20T03:32:32.081Z,24.06
2023-04-20T03:34:14.291Z,23.81
2023-04-20T03:35:57.431Z,24.30
2023-04-20T03:37:33.751Z,23.61
2023-04-20T03:39:08.794Z,22.36
2023-04-20T03:40:54.252Z,22.69
2023-04-20T03:42:45.154Z,23.21
2023-04-20T03:44:21.220Z,22.57
2023-04-20T03:45:54.453Z,23.72
2023-04-20T03:47:35.581Z,24.01
2023-04-20T03:49:15.568Z,23.48
2023-04-20T03:51:00.258Z,24.37
2023-04-20T03:52:35.688Z,24.11
2023-04-20T03:54:11.100Z,23.71
2023-04-20T03:55:35.538Z,23.76
2023-04-20T03:57:14.418Z,23.86
2023-04-20T03:58:47.701Z,24.05
2023-04-20T04:00:39.103Z,24.86
2023-04-20T04:02:02.227Z,24.96
2023-04-20T04:03:47.530Z,24.63
2023-04-20T04:05:23.324Z,24.11
2023-04-20T04:07:08.897Z,23.78
2023-04-20T04:08:50.501Z,24.41
2023-04-20T04:10:24.239Z,23.26
2023-04-20T04:11:57.582Z,22.28
2023-04-20T04:13:42.862Z,22.63
2023-04-20T04:15:19.627Z,22.29
2023-04-20T04:17:00.855Z,20.92
2023-04-20T04:18:41.686Z,19.59
2023-04-20T04:20:29.409Z,20.02
2023-04-20T04:22:03.988Z,19.85
2023-04-20T04:23:28.834Z,19.34
2023-04-20T04:25:11.743Z,20.33
2023-04-20T04:26:47.619Z,20.80
2023-04-20T04:28:33.308Z,18.39
2023-04-20T04:30:11.540Z,19.13
2023-04-20T04:31:36.194Z,17.96
2023-04-20T04:33:21.791Z,18.47
2023-04-20T04:35:06.991Z,18.68
2023-04-20T04:36:40.403Z,19.29
2023-04-20T04:38:12.603Z,18.40
2023-04-20T04:39:48.601Z,17.99
2023-04-20T04:41:14.868Z,19.18
2023-04-20T04:42:48.188Z,18.70
2023-04-20T04:44:19.775Z,18.62
2023-04-20T04:45:53.230Z,18.02
2023-04-20T04:47:29.513Z,18.14
2023-04-20T04:49:05.385Z,18.53
2023-04-20T04:50:40.826Z,18.68
2023-04-20T04:52:21.923Z,18.71
2023-04-20T04:53:56.729Z,19.25
2023-04-20T04:55:30.435Z,18.96
2023-04-20T04:57:06.387Z,19.45
2023-04-20T04:58:51.064Z,19.31
2023-04-20T05:00:27.469Z,20.01
2023-04-20T05:02:12.999Z,19.67
2023-04-20T05:03:46.784Z,19.99
2023-04-20T05:05:22.811Z,18.77
2023-04-20T05:07:07.992Z,19.73
2023-04-20T05:08:44.543Z,19.44
2023-04-20T05:10:20.342Z,19.28
2023-04-20T05:12:05.289Z,19.89
2023-04-20T05:13:38.629Z,18.82
2023-04-20T05:15:19.532Z,18.67
2023-04-20T05:17:04.232Z,19.32
2023-04-20T05:18:38.937Z,19.36
2023-04-20T05:20:12.593Z,18.98
2023-04-20T05:21:48.228Z,18.92
2023-04-20T05:23:36.768Z,18.56
2023-04-20T05:25:18.202Z,19.57
2023-04-20T05:26:53.569Z,19.18
2023-04-20T05:28:18.625Z,19.52
2023-04-20T05:29:47.436Z,19.94
2023-04-20T05:31:21.261Z,19.63
2023-04-20T05:33:02.131Z,20.10
2023-04-20T05:34:31.419Z,20.88
2023-04-20T05:36:17.599Z,20.66
2023-04-20T05:38:02.436Z,20.28
2023-04-20T05:39:24.448Z,19.93
2023-04-20T05:40:59.814Z,20.20
2023-04-20T05:42:31.524Z,19.87
2023-04-20T05:44:06.991Z,19.43
2023-04-20T05:45:42.609Z,20.29
2023-04-20T05:47:23.432Z,20.15
2023-04-20T05:48:58.890Z,19.59
2023-04-20T05:50:53.442Z,19.55
2023-04-20T05:52:38.368Z,19.99
2023-04-20T05:54:23.501Z,19.30
2023-04-20T05:56:08.457Z,20.52
2023-04-20T05:57:41.817Z,20.60
2023-04-20T05:59:32.272Z,21.31
2023-04-20T06:01:05.191Z,20.68
2023-04-20T06:02:29.418Z,20.86
2023-04-20T06:04:14.122Z,19.58
2023-04-20T06:05:47.763Z,19.42
2023-04-20T06:07:14.182Z,20.09
2023-04-20T06:08:59.520Z,19.94
2023-04-20T06:10:48.951Z,20.10
2023-04-20T06:12:34.074Z,20.78
2023-04-20T06:14:14.996Z,20.68
2023-04-20T06:15:44.160Z,20.22
2023-04-20T06:17:09.181Z,20.09
2023-04-20T06:18:38.283Z,19.83
2023-04-20T06:20:24.049Z,20.04
2023-04-20T06:21:49.735Z,19.42
2023-04-20T06:23:23.371Z,18.41
2023-04-20T06:25:08.353Z,19.55
2023-04-20T06:26:30.117Z,18.53
2023-04-20T06:28:15.203Z,19.71
2023-04-20T06:30:00.286Z,19.48
2023-04-20T06:31:34.084Z,18.36
2023-04-20T06:33:19.203Z,17.32
2023-04-20T06:35:04.689Z,17.61
2023-04-20T06:36:37.976Z,17.72
2023-04-20T06:38:06.876Z,17.89
2023-04-20T06:39:48.160Z,17.45
2023-04-20T06:41:33.798Z,17.66
2023-04-20T06:43:11.893Z,17.63
2023-04-20T06:44:47.385Z,18.68
2023-04-20T06:46:16.843Z,18.66
2023-04-20T06:47:57.607Z,18.53
2023-04-20T06:49:31.228Z,18.03
2023-04-20T06:51:04.748Z,17.43
2023-04-20T06:52:31.231Z,17.78
2023-04-20T06:54:00.483Z,17.09
2023-04-20T06:55:48.716Z,18.27
2023-04-20T06:57:24.722Z,18.07
2023-04-20T06:58:58.092Z,17.62
2023-04-20T07:00:27.824Z,16.44
2023-04-20T07:01:58.895Z,15.93
2023-04-20T07:03:32.829Z,15.42
2023-04-20T07:05:06.237Z,15.11
2023-04-20T07:06:35.467Z,14.63
2023-04-20T07:08:08.855Z,14.06
2023-04-20T07:09:53.481Z,15.19
2023-04-20T07:11:29.709Z,14.49
2023-04-20T07:12:51.027Z,13.72
2023-04-20T07:14:13.313Z,13.77
2023-04-20T07:15:49.085Z,14.05
2023-04-20T07:17:34.304Z,13.70
2023-04-20T07:19:19.801Z,14.19
2023-04-20T07:20:56.182Z,14.38
2023-04-20T07:22:32.485Z,13.22
2023-04-20T07:24:05.890Z,12.77
2023-04-20T07:25:27.814Z,12.25
2023-04-20T07:27:09.054Z,11.96
2023-04-20T07:28:30.751Z,12.42
2023-04-20T07:29:52.273Z,11.82
2023-04-20T07:31:22.027Z,12.65
2023-04-20T07:32:53.597Z,11.57
2023-04-20T07:34:27.710Z,11.02
2023-04-20T07:36:13.394Z,11.52
2023-04-20T07:37:53.841Z,11.90
2023-04-20T07:39:30.231Z,12.25
2023-04-20T07:41:03.855Z,12.39
2023-04-20T07:42:57.419Z,11.95
2023-04-20T07:44:21.757Z,11.06
2023-04-20T07:46:06.644Z,10.48
2023-04-20T07:47:51.623Z,11.10
2023-04-20T07:49:41.733Z,11.30
2023-04-20T07:51:13.678Z,10.72
2023-04-20T07:52:35.802Z,10.31
2023-04-20T07:54:09.511Z,10.27
2023-04-20T07:55:40.918Z,10.31
2023-04-20T07:57:16.372Z,9.94
2023-04-20T07:58:52.379Z,10.03
2023-04-20T08:00:24.484Z,9.51
2023-04-20T08:01:59.895Z,9.56
2023-04-20T08:03:45.518Z,9.69
2023-04-20T08:05:10.062Z,9.87
2023-04-20T08:06:32.904Z,9.63
2023-04-20T08:07:59.361Z,9.85
2023-04-20T08:09:44.721Z,10.26
2023-04-20T08:11:27.727Z,9.60
2023-04-20T08:13:03.340Z,9.72
2023-04-20T08:14:25.278Z,9.71
2023-04-20T08:15:58.142Z,9.94
2023-04-20T08:17:24.603Z,9.65
2023-04-20T08:18:57.957Z,9.47
2023-04-20T08:20:30.851Z,9.93
2023-04-20T08:22:20.029Z,9.04
2023-04-20T08:23:53.324Z,8.77
2023-04-20T08:25:27.373Z,7.62
2023-04-20T08:27:01.613Z,7.98
2023-04-20T08:28:34.933Z,8.58
2023-04-20T08:30:20.542Z,8.21
2023-04-20T08:31:41.877Z,8.37
2023-04-20T08:33:11.514Z,9.28
2023-04-20T08:34:33.884Z,9.36
2023-04-20T08:36:19.442Z,9.49
2023-04-20T08:38:03.754Z,10.24
2023-04-20T08:39:49.898Z,9.48
2023-04-20T08:41:23.197Z,7.18
2023-04-20T08:42:47.304Z,8.00
2023-04-20T08:44:11.472Z,8.65
2023-04-20T08:45:44.665Z,8.20
2023-04-20T08:47:20.159Z,8.13
2023-04-20T08:49:05.198Z,8.52
2023-04-20T08:50:50.523Z,8.44
2023-04-20T08:52:12.234Z,9.03
2023-04-20T08:53:53.943Z,8.18
2023-04-20T08:55:27.338Z,8.38
2023-04-20T08:56:57.042Z,9.23
2023-04-20T08:58:30.569Z,8.38
2023-04-20T09:00:05.762Z,8.81
2023-04-20T09:01:39.072Z,8.47
2023-04-20T09:03:11.187Z,8.59
2023-04-20T09:04:33.262Z,8.77
2023-04-20T09:06:02.953Z,9.56
2023-04-20T09:07:32.061Z,9.11
2023-04-20T09:08:58.170Z,8.74
2023-04-20T09:10:31.636Z,9.37
2023-04-20T09:12:07.700Z,9.54
2023-04-20T09:13:41.589Z,9.31
2023-04-20T09:15:15.219Z,9.23
2023-04-20T09:17:00.787Z,9.07
2023-04-20T09:18:30.263Z,9.74
2023-04-20T09:19:51.958Z,9.95
2023-04-20T09:21:27.746Z,9.17
2023-04-20T09:22:54.226Z,8.75
2023-04-20T09:24:27.712Z,8.79
2023-04-20T09:26:04.028Z,9.11
2023-04-20T09:27:45.023Z,9.85
2023-04-20T09:29:30.387Z,9.23
2023-04-20T09:31:16.789Z,8.98
2023-04-20T09:32:52.390Z,8.81
2023-04-20T09:34:14.565Z,9.63
2023-04-20T09:35:56.043Z,9.34
2023-04-20T09:37:40.718Z,9.97
2023-04-20T09:39:03.771Z,8.86
2023-04-20T09:40:48.696Z,8.50
2023-04-20T09:42:10.954Z,9.22
2023-04-20T09:43:40.167Z,9.08
2023-04-20T09:45:02.599Z,9.14
2023-04-20T09:46:36.087Z,8.68
2023-04-20T09:47:57.834Z,9.33
2023-04-20T09:49:33.397Z,9.18
2023-04-20T09:50:57.099Z,9.22
2023-04-20T09:52:19.257Z,8.33
2023-04-20T09:53:54.817Z,8.47
2023-04-20T09:55:28.369Z,7.95
2023-04-20T09:57:04.625Z,8.58
2023-04-20T09:58:33.403Z,7.49
2023-04-20T09:59:57.319Z,7.81
2023-04-20T10:01:27.220Z,7.39
2023-04-20T10:03:00.777Z,7.27
2023-04-20T10:04:23.736Z,7.71
2023-04-20T10:05:47.574Z,6.70
2023-04-20T10:07:11.994Z,6.51
2023-04-20T10:08:42.131Z,5.67
2023-04-20T10:10:15.571Z,5.93
2023-04-20T10:11:53.975Z,5.92
2023-04-20T10:13:28.827Z,6.02
2023-04-20T10:14:57.729Z,5.43
2023-04-20T10:16:27.046Z,5.24
2023-04-20T10:17:48.856Z,4.90
2023-04-20T10:19:10.641Z,4.91
2023-04-20T10:20:34.773Z,5.38
2023-04-20T10:22:20.071Z,5.82
2023-04-20T10:23:53.631Z,5.39
2023-04-20T10:25:17.747Z,5.58
2023-04-20T10:26:47.240Z,5.56
2023-04-20T10:28:29.268Z,5.38
2023-04-20T10:29:52.917Z,5.69
2023-04-20T10:31:33.828Z,5.65
2023-04-20T10:32:58.011Z,5.77
2023-04-20T10:34:24.629Z,5.20
2023-04-20T10:35:58.995Z,4.68
2023-04-20T10:37:32.894Z,4.81
2023-04-20T10:39:19.531Z,4.95
2023-04-20T10:41:04.691Z,5.24
2023-04-20T10:42:36.097Z,5.09
2023-04-20T10:44:07.623Z,5.75
2023-04-20T10:45:52.363Z,5.54
2023-04-20T10:47:37.540Z,5.33
2023-04-20T10:49:22.510Z,5.14
2023-04-20T10:51:12.961Z,5.07
2023-04-20T10:52:53.366Z,4.96
2023-04-20T10:54:26.961Z,5.68
2023-04-20T10:56:03.209Z,4.90
2023-04-20T10:57:36.462Z,5.17
2023-04-20T10:58:59.898Z,5.15
2023-04-20T11:00:34.982Z,4.99
2023-04-20T11:02:28.733Z,5.31
2023-04-20T11:04:16.194Z,5.76
2023-04-20T11:06:03.588Z,5.59
2023-04-20T11:07:57.597Z,4.97
2023-04-20T11:09:51.020Z,4.69
2023-04-20T11:11:45.371Z,5.52
2023-04-20T11:13:39.212Z,5.99
2023-04-20T11:15:13.644Z,5.67
2023-04-20T11:16:59.042Z,5.66
2023-04-20T11:18:52.763Z,5.55
2023-04-20T11:20:15.165Z,5.21
2023-04-20T11:21:48.336Z,5.18
2023-04-20T11:23:41.966Z,5.64
2023-04-20T11:25:17.928Z,5.06
2023-04-20T11:26:53.799Z,5.24
2023-04-20T11:28:34.979Z,5.21
2023-04-20T11:30:10.237Z,5.70
2023-04-20T11:31:55.333Z,5.30
2023-04-20T11:33:28.964Z,5.55
2023-04-20T11:35:14.231Z,5.58
2023-04-20T11:36:58.973Z,5.64
2023-04-20T11:38:32.397Z,5.68
2023-04-20T11:40:06.078Z,6.07
2023-04-20T11:41:27.727Z,5.86
2023-04-20T11:42:48.963Z,5.72
2023-04-20T11:44:26.028Z,5.58
2023-04-20T11:45:47.859Z,5.89
2023-04-20T11:47:17.211Z,5.51
2023-04-20T11:49:02.190Z,5.23
2023-04-20T11:50:56.146Z,5.88
2023-04-20T11:52:41.115Z,5.72
2023-04-20T11:54:34.663Z,5.79
2023-04-20T11:56:08.764Z,6.12
2023-04-20T11:57:53.503Z,5.55
2023-04-20T11:59:28.271Z,6.18
2023-04-20T12:01:01.191Z,6.27
2023-04-20T12:02:36.669Z,5.67
2023-04-20T12:04:10.331Z,6.29
2023-04-20T12:05:44.321Z,6.06
2023-04-20T12:07:26.585Z,5.88
2023-04-20T12:08:51.116Z,5.99
2023-04-20T12:10:15.122Z,5.88
2023-04-20T12:11:39.768Z,5.96
2023-04-20T12:13:01.697Z,6.23
2023-04-20T12:14:26.904Z,5.99
2023-04-20T12:15:51.012Z,5.48
2023-04-20T12:17:29.610Z,5.87
2023-04-20T12:19:00.666Z,6.26
2023-04-20T12:20:45.828Z,5.73
2023-04-20T12:22:21.753Z,5.90
2023-04-20T12:23:57.400Z,5.62
2023-04-20T12:25:50.690Z,5.34
2023-04-20T12:27:25.629Z,5.71
2023-04-20T12:28:58.863Z,5.60
2023-04-20T12:30:44.107Z,5.22
2023-04-20T12:32:13.395Z,5.25
2023-04-20T12:33:44.533Z,5.85
2023-04-20T12:35:38.242Z,5.80
2023-04-20T12:37:11.491Z,5.38
2023-04-20T12:38:33.557Z,5.10
2023-04-20T12:40:07.141Z,5.14
2023-04-20T12:41:36.510Z,5.65
2023-04-20T12:43:00.665Z,6.68
2023-04-20T12:44:24.785Z,6.69
2023-04-20T12:45:57.919Z,5.43
2023-04-20T12:47:31.817Z,5.85
2023-04-20T12:48:55.638Z,5.47
2023-04-20T12:50:17.517Z,5.37
2023-04-20T12:51:39.398Z,6.05
2023-04-20T12:53:21.334Z,5.93
2023-04-20T12:55:02.146Z,5.52
2023-04-20T12:56:47.164Z,5.70
2023-04-20T12:58:09.095Z,5.73
2023-04-20T12:59:31.016Z,5.49
2023-04-20T13:00:52.453Z,5.78
2023-04-20T13:02:26.379Z,5.27
2023-04-20T13:03:48.826Z,5.87
2023-04-20T13:05:20.632Z,6.28
2023-04-20T13:07:05.936Z,6.12
2023-04-20T13:08:39.601Z,5.91
2023-04-20T13:10:09.028Z,6.43
2023-04-20T13:11:44.471Z,5.59
2023-04-20T13:13:18.389Z,5.28
2023-04-20T13:14:51.658Z,5.77
2023-04-20T13:16:15.978Z,6.48
2023-04-20T13:17:49.130Z,5.60
2023-04-20T13:19:31.118Z,5.68
2023-04-20T13:21:04.813Z,5.73
2023-04-20T13:22:57.554Z,6.36
2023-04-20T13:24:27.608Z,6.04
2023-04-20T13:26:00.757Z,5.47
2023-04-20T13:27:41.769Z,5.78
2023-04-20T13:29:17.511Z,6.13
2023-04-20T13:30:47.038Z,5.36
2023-04-20T13:32:27.989Z,5.36
2023-04-20T13:33:56.530Z,5.50
2023-04-20T13:35:30.513Z,5.55
2023-04-20T13:37:04.153Z,5.60
2023-04-20T13:38:33.304Z,5.02
2023-04-20T13:40:06.864Z,5.10
2023-04-20T13:41:52.193Z,5.07
2023-04-20T13:43:16.229Z,5.40
2023-04-20T13:45:01.037Z,4.88
2023-04-20T13:46:46.024Z,5.62
2023-04-20T13:48:36.363Z,4.51
2023-04-20T13:50:09.484Z,4.84
2023-04-20T13:51:54.138Z,4.73
2023-04-20T13:53:38.369Z,4.95
2023-04-20T13:55:25.005Z,4.71
2023-04-20T13:57:02.381Z,5.06
2023-04-20T13:58:26.940Z,4.71
2023-04-20T14:00:02.518Z,4.56
2023-04-20T14:01:34.645Z,4.82
2023-04-20T14:03:27.222Z,4.92
2023-04-20T14:05:13.233Z,4.98
2023-04-20T14:06:58.328Z,5.51
2023-04-20T14:08:40.620Z,5.30
2023-04-20T14:10:22.346Z,5.48
2023-04-20T14:11:57.742Z,6.40
2023-04-20T14:13:43.164Z,5.37
2023-04-20T14:15:05.512Z,7.27
2023-04-20T14:16:39.977Z,10.48
2023-04-20T14:18:13.616Z,11.88
2023-04-20T14:19:58.361Z,10.13
2023-04-20T14:21:46.747Z,12.88
2023-04-20T14:23:09.609Z,11.04
2023-04-20T14:24:45.301Z,9.52
2023-04-20T14:26:30.808Z,5.77
2023-04-20T14:28:11.785Z,4.62
2023-04-20T14:29:44.864Z,4.33
2023-04-20T14:31:08.989Z,3.77
2023-04-20T14:32:42.585Z,4.66
2023-04-20T14:34:13.087Z,4.55
2023-04-20T14:35:46.456Z,4.28
2023-04-20T14:37:29.435Z,4.27
2023-04-20T14:39:14.542Z,4.53
2023-04-20T14:40:54.786Z,4.89
2023-04-20T14:42:49.435Z,4.33
2023-04-20T14:44:22.991Z,4.54
2023-04-20T14:46:15.936Z,4.61
2023-04-20T14:47:51.568Z,5.80
2023-04-20T14:49:45.409Z,8.87
2023-04-20T14:51:34.464Z,8.98
2023-04-20T14:53:08.123Z,6.37
2023-04-20T14:54:44.091Z,4.56
2023-04-20T14:56:13.330Z,5.45
2023-04-20T14:57:48.914Z,10.48
2023-04-20T14:59:20.324Z,8.27
2023-04-20T15:00:56.172Z,5.92
2023-04-20T15:02:28.054Z,5.44
2023-04-20T15:04:03.882Z,6.26
2023-04-20T15:05:42.017Z,7.40
2023-04-20T15:07:17.663Z,13.30
2023-04-20T15:08:42.376Z,11.33
2023-04-20T15:10:16.158Z,6.89
2023-04-20T15:11:37.631Z,5.48
2023-04-20T15:13:18.520Z,7.77
2023-04-20T15:15:03.680Z,6.05
2023-04-20T15:16:25.281Z,6.93
2023-04-20T15:17:58.555Z,6.51
2023-04-20T15:19:30.260Z,10.22
2023-04-20T15:21:01.186Z,14.13
2023-04-20T15:22:46.263Z,11.04
2023-04-20T15:24:23.119Z,5.86
2023-04-20T15:25:49.497Z,6.30
2023-04-20T15:27:22.889Z,5.25
2023-04-20T15:29:07.545Z,4.89
2023-04-20T15:30:40.978Z,5.10
2023-04-20T15:32:14.403Z,5.27
2023-04-20T15:33:50.557Z,5.39
2023-04-20T15:35:31.298Z,6.29
2023-04-20T15:37:07.652Z,6.16
2023-04-20T15:38:36.818Z,5.90
2023-04-20T15:40:12.731Z,6.29
2023-04-20T15:41:43.771Z,5.99
2023-04-20T15:43:17.424Z,6.16
2023-04-20T15:44:50.721Z,5.88
2023-04-20T15:46:24.232Z,5.58
2023-04-20T15:48:09.193Z,5.44
2023-04-20T15:49:40.455Z,5.21
2023-04-20T15:51:25.508Z,4.86
2023-04-20T15:52:49.681Z,4.27
2023-04-20T15:54:23.690Z,4.77
2023-04-20T15:55:59.468Z,4.82
2023-04-20T15:57:33.729Z,4.66
2023-04-20T15:59:18.713Z,4.51
2023-04-20T16:01:00.056Z,5.37
2023-04-20T16:02:34.450Z,4.91
2023-04-20T16:04:19.977Z,4.95
2023-04-20T16:05:53.864Z,4.53
2023-04-20T16:07:38.212Z,5.93
2023-04-20T16:08:59.748Z,6.25
2023-04-20T16:10:40.688Z,5.22
2023-04-20T16:12:05.470Z,4.14
2023-04-20T16:13:29.299Z,4.64
2023-04-20T16:15:03.691Z,4.12
2023-04-20T16:16:58.468Z,4.95
2023-04-20T16:18:32.292Z,4.93
2023-04-20T16:19:54.033Z,5.40
2023-04-20T16:21:27.492Z,5.26
2023-04-20T16:22:59.360Z,4.78
2023-04-20T16:24:23.105Z,4.88
2023-04-20T16:25:56.308Z,4.58
2023-04-20T16:27:29.740Z,4.29
2023-04-20T16:28:58.935Z,4.62
2023-04-20T16:30:40.055Z,4.38
2023-04-20T16:32:04.617Z,4.71
2023-04-20T16:33:33.761Z,3.84
2023-04-20T16:35:07.885Z,4.43
2023-04-20T16:36:29.473Z,4.67
2023-04-20T16:38:04.807Z,4.53
2023-04-20T16:39:57.990Z,4.86
2023-04-20T16:41:31.813Z,4.69
2023-04-20T16:43:18.226Z,4.61
2023-04-20T16:44:53.918Z,4.69
2023-04-20T16:46:46.872Z,4.90
2023-04-20T16:48:27.800Z,4.61
2023-04-20T16:50:09.017Z,4.75
2023-04-20T16:51:33.261Z,4.21
2023-04-20T16:53:04.501Z,4.81
2023-04-20T16:54:50.423Z,4.80
2023-04-20T16:56:15.063Z,4.73
2023-04-20T16:57:59.985Z,5.11
2023-04-20T16:59:50.357Z,5.22
2023-04-20T17:01:12.420Z,5.12
2023-04-20T17:02:53.033Z,5.03
2023-04-20T17:04:36.083Z,5.30
2023-04-20T17:06:07.044Z,6.32
2023-04-20T17:07:29.174Z,6.12
2023-04-20T17:09:22.467Z,5.50
2023-04-20T17:11:07.248Z,6.78
2023-04-20T17:12:29.084Z,5.78
2023-04-20T17:14:02.636Z,5.64
2023-04-20T17:15:47.690Z,5.19
2023-04-20T17:17:41.494Z,5.22
2023-04-20T17:19:05.467Z,5.27
2023-04-20T17:20:52.176Z,5.01
2023-04-20T17:22:16.551Z,5.79
2023-04-20T17:23:41.004Z,5.28
2023-04-20T17:25:14.726Z,5.22
2023-04-20T17:26:41.445Z,5.53
2023-04-20T17:28:22.444Z,5.13
2023-04-20T17:29:56.356Z,5.33
2023-04-20T17:31:33.399Z,5.44
2023-04-20T17:32:57.188Z,5.54
2023-04-20T17:34:20.429Z,5.39
2023-04-20T17:35:46.662Z,5.33
2023-04-20T17:37:15.952Z,5.78
2023-04-20T17:38:50.096Z,5.33
2023-04-20T17:40:12.150Z,5.26
2023-04-20T17:41:35.565Z,5.47
2023-04-20T17:42:57.068Z,5.54
2023-04-20T17:44:25.953Z,5.35
2023-04-20T17:46:11.162Z,5.80
2023-04-20T17:47:46.884Z,6.75
2023-04-20T17:49:20.414Z,7.19
2023-04-20T17:50:49.684Z,8.31
2023-04-20T17:52:34.765Z,10.12
2023-04-20T17:54:08.391Z,9.48
2023-04-20T17:55:41.973Z,9.80
2023-04-20T17:57:15.413Z,10.56
2023-04-20T17:58:49.145Z,11.75
2023-04-20T18:00:13.496Z,14.53
2023-04-20T18:01:35.910Z,12.94
2023-04-20T18:03:05.285Z,15.25
2023-04-20T18:04:39.109Z,12.96
2023-04-20T18:06:13.468Z,10.60
2023-04-20T18:07:46.602Z,10.92
2023-04-20T18:09:12.725Z,9.79
2023-04-20T18:10:46.188Z,9.13
2023-04-20T18:12:10.507Z,8.91
2023-04-20T18:13:32.171Z,7.95
2023-04-20T18:14:53.544Z,8.00
2023-04-20T18:16:15.989Z,7.70
2023-04-20T18:17:44.621Z,7.36
2023-04-20T18:19:38.326Z,7.76
2023-04-20T18:21:09.770Z,7.26
2023-04-20T18:22:51.383Z,7.94
2023-04-20T18:24:32.061Z,7.63
2023-04-20T18:25:56.289Z,7.81
2023-04-20T18:27:37.026Z,7.48
2023-04-20T18:29:10.649Z,7.94
2023-04-20T18:30:57.659Z,6.99
2023-04-20T18:32:33.003Z,8.01
2023-04-20T18:34:18.171Z,8.31
2023-04-20T18:36:00.382Z,8.66
2023-04-20T18:37:54.154Z,9.16
2023-04-20T18:39:43.452Z,9.39
2023-04-20T18:41:24.186Z,9.16
2023-04-20T18:42:57.780Z,9.58
2023-04-20T18:44:42.171Z,9.95
2023-04-20T18:46:14.056Z,9.76
2023-04-20T18:47:47.143Z,9.51
2023-04-20T18:49:27.960Z,9.66
2023-04-20T18:51:03.615Z,9.78
2023-04-20T18:52:26.315Z,9.49
2023-04-20T18:53:52.736Z,10.45
2023-04-20T18:55:28.791Z,10.07
2023-04-20T18:57:09.932Z,10.64
2023-04-20T18:58:45.585Z,10.57
2023-04-20T19:00:26.786Z,10.49
2023-04-20T19:01:51.120Z,11.16
2023-04-20T19:03:26.814Z,10.70
2023-04-20T19:04:50.992Z,10.63
2023-04-20T19:06:22.342Z,11.10
2023-04-20T19:07:46.977Z,11.13
2023-04-20T19:09:18.373Z,11.47
2023-04-20T19:11:03.370Z,11.68
2023-04-20T19:12:37.104Z,11.64
2023-04-20T19:14:22.425Z,10.74
2023-04-20T19:15:48.886Z,11.66
2023-04-20T19:17:22.409Z,11.13
2023-04-20T19:18:48.377Z,11.51
2023-04-20T19:20:12.305Z,11.69
2023-04-20T19:21:57.440Z,11.57
2023-04-20T19:23:37.973Z,11.93
2023-04-20T19:25:23.118Z,11.71
2023-04-20T19:26:52.312Z,12.68
2023-04-20T19:28:14.297Z,13.04
2023-04-20T19:29:43.261Z,12.49
2023-04-20T19:31:36.829Z,12.14
2023-04-20T19:33:19.531Z,12.78
2023-04-20T19:35:00.309Z,12.17
2023-04-20T19:36:24.401Z,12.26
2023-04-20T19:38:09.165Z,12.42
2023-04-20T19:39:45.547Z,11.90
2023-04-20T19:41:19.411Z,12.72
2023-04-20T19:42:42.322Z,11.97
2023-04-20T19:44:18.800Z,11.88
2023-04-20T19:45:59.349Z,12.41
2023-04-20T19:47:32.557Z,12.82
2023-04-20T19:48:54.414Z,13.51
2023-04-20T19:50:18.516Z,13.30
2023-04-20T19:51:52.118Z,13.32
2023-04-20T19:53:16.506Z,13.89
2023-04-20T19:54:43.077Z,13.49
2023-04-20T19:58:10.648Z,12.50
2023-04-20T19:59:46.073Z,13.60
2023-04-20T20:01:10.708Z,13.45
2023-04-20T20:02:37.730Z,14.82
2023-04-20T20:04:02.325Z,14.19
2023-04-20T20:05:26.383Z,14.35
2023-04-20T20:07:02.138Z,14.52
2023-04-20T20:08:39.197Z,14.56
2023-04-20T20:10:12.666Z,14.46
2023-04-20T20:11:48.804Z,14.67
2023-04-20T20:13:29.905Z,14.51
2023-04-20T20:14:54.354Z,14.92
2023-04-20T20:16:30.191Z,14.33
2023-04-20T20:17:59.347Z,15.34
2023-04-20T20:19:22.008Z,14.30
2023-04-20T20:20:55.619Z,14.21
2023-04-20T20:24:42.689Z,14.27
2023-04-20T20:26:04.814Z,15.05
2023-04-20T20:27:28.744Z,15.22
2023-04-20T20:28:53.463Z,15.31
2023-04-20T20:30:23.006Z,14.65
2023-04-20T20:31:56.554Z,15.55
2023-04-20T20:33:23.568Z,15.24
2023-04-20T20:35:07.365Z,15.18
2023-04-20T20:36:32.027Z,15.45
2023-04-20T20:37:56.210Z,15.82
2023-04-20T20:39:32.349Z,15.45
2023-04-20T20:40:56.457Z,14.92
2023-04-20T20:42:30.965Z,14.86
2023-04-20T20:44:12.019Z,14.38
2023-04-20T20:45:48.854Z,14.52
2023-04-20T20:47:12.900Z,14.64
2023-04-20T20:49:00.602Z,15.71
2023-04-20T20:50:30.496Z,14.87
2023-04-20T20:52:15.645Z,15.22
2023-04-20T20:54:04.726Z,15.19
2023-04-20T20:55:29.213Z,14.86
2023-04-20T20:57:10.676Z,14.98
2023-04-20T20:58:34.831Z,15.09
2023-04-20T21:00:28.321Z,15.29
2023-04-20T21:02:13.975Z,14.61